createdAt,value
2022-08-07T00:03:19.843Z,22.4
2022-08-07T00:18:20.238Z,22.2
2022-08-07T00:33:19.784Z,22
2022-08-07T00:48:19.718Z,21.8
2022-08-07T01:03:19.735Z,21.7
2022-08-07T01:18:19.724Z,21.5
2022-08-07T01:33:19.674Z,21.3
2022-08-07T01:48:30.764Z,21
2022-08-07T02:03:26.224Z,20.9
2022-08-07T02:18:19.565Z,20.7
2022-08-07T02:33:19.587Z,20.6
2022-08-07T02:48:19.522Z,20.5
2022-08-07T03:03:22.676Z,20.3
2022-08-07T03:18:20.212Z,20.1
2022-08-07T03:33:19.475Z,19.9
2022-08-07T03:48:19.402Z,19.9
2022-08-07T04:03:19.411Z,19.8
2022-08-07T04:18:58.262Z,19.7
2022-08-07T04:33:19.370Z,19.5
2022-08-07T05:03:59.776Z,19.5
2022-08-07T05:18:19.244Z,20.2
2022-08-07T05:33:20.760Z,21.3
2022-08-07T05:48:19.194Z,22.5
2022-08-07T06:03:19.199Z,23.3
2022-08-07T06:18:19.141Z,23.9
2022-08-07T06:33:19.147Z,24.6
2022-08-07T06:48:25.244Z,25.4
2022-08-07T07:03:25.683Z,25.5
2022-08-07T07:18:47.315Z,26.1
2022-08-07T07:33:19.035Z,27.1
2022-08-07T07:48:24.344Z,26.3
2022-08-07T08:04:06.281Z,27.1
2022-08-07T08:18:19.129Z,27.4
2022-08-07T08:33:18.925Z,29.7
2022-08-07T08:48:18.862Z,29.8
2022-08-07T09:03:18.871Z,29.4
2022-08-07T09:18:22.529Z,29.8
2022-08-07T09:33:40.692Z,31.8
2022-08-07T09:48:19.053Z,29.8
2022-08-07T10:04:05.461Z,29.5
2022-08-07T10:18:18.705Z,30.5
2022-08-07T10:33:18.728Z,29.9
2022-08-07T10:48:18.646Z,29.6
2022-08-07T11:03:19.451Z,28.9
2022-08-07T11:18:18.596Z,28.4
2022-08-07T11:33:18.563Z,28.2
2022-08-07T11:48:29.182Z,27.8
2022-08-07T12:03:45.369Z,27.6
2022-08-07T12:18:22.236Z,27.9
2022-08-07T12:33:23.362Z,28.1
2022-08-07T12:48:28.402Z,28.3
2022-08-07T13:03:23.074Z,28.3
2022-08-07T13:18:25.892Z,28.6
2022-08-07T13:34:31.224Z,29.2
2022-08-07T13:48:20.524Z,29.8
2022-08-07T14:03:30.001Z,29.5
2022-08-07T14:18:27.805Z,29.6
2022-08-07T14:33:22.395Z,30.3
2022-08-07T14:48:19.721Z,30.1
2022-08-07T15:18:28.539Z,29.5
2022-08-07T15:33:19.631Z,29.5
2022-08-07T15:48:18.621Z,29.9
2022-08-07T16:03:21.640Z,29.8
2022-08-07T16:18:43.600Z,29.8
2022-08-07T16:34:02.861Z,29.5
2022-08-07T16:48:28.412Z,29.3
2022-08-07T17:03:18.001Z,29.4
2022-08-07T17:18:17.929Z,29.3
2022-08-07T17:34:09.369Z,29.1
2022-08-07T17:48:30.547Z,29.1
2022-08-07T18:03:18.733Z,28.9
2022-08-07T18:18:47.399Z,28.9
2022-08-07T18:33:17.833Z,28.6
2022-08-07T18:50:04.712Z,28.4
2022-08-07T19:03:17.882Z,28.1
2022-08-07T19:18:17.711Z,27.9
2022-08-07T19:33:17.724Z,27.7
2022-08-07T19:48:18.656Z,27.5
2022-08-07T20:03:34.938Z,27.3
2022-08-07T20:18:18.446Z,27
2022-08-07T20:33:24.224Z,26.7
2022-08-07T20:48:29.061Z,26.3
2022-08-07T21:03:19.021Z,26.1
2022-08-07T21:18:27.822Z,25.9
2022-08-07T21:33:17.601Z,25.6
2022-08-07T21:48:28.614Z,25.2
2022-08-07T22:03:18.841Z,24.9
2022-08-07T22:18:17.421Z,24.6
2022-08-07T22:33:17.378Z,24.4
2022-08-07T22:48:55.345Z,23.9
2022-08-07T23:03:17.350Z,23.5
2022-08-07T23:18:18.010Z,23.3
2022-08-07T23:34:23.629Z,23.2
2022-08-07T23:48:17.215Z,23.1
